Time;durP1;ratioP1;P1;durP2;ratioP2;P2;SDS_P1;SDS_P2;PMS_P1;PMS_P2;Temp;Humidity;BMP_temperature;BMP_pressure;BME280_temperature;BME280_humidity;BME280_pressure;Samples;Min_cycle;Max_cycle;Signal;HPM_P1;HPM_P2
2023/10/04 00:00:27;;;;;;;5.63;2.27;;;13.90;99.90;;;;;;5058234;28;21012;-78
2023/10/04 00:02:54;;;;;;;5.57;2.80;;;13.90;99.90;;;;;;5059707;28;20891;-79
2023/10/04 00:05:24;;;;;;;5.10;2.23;;;13.80;99.90;;;;;;5059456;28;20545;-78
2023/10/04 00:07:52;;;;;;;3.07;2.20;;;13.90;99.90;;;;;;5057733;28;20538;-78
2023/10/04 00:10:23;;;;;;;5.10;2.63;;;13.80;99.90;;;;;;5059126;28;20852;-78
2023/10/04 00:12:50;;;;;;;4.00;2.13;;;13.80;99.90;;;;;;5058638;28;20460;-78
2023/10/04 00:15:20;;;;;;;5.80;2.83;;;13.80;99.90;;;;;;5060341;28;20491;-78
2023/10/04 00:17:47;;;;;;;5.50;2.77;;;13.70;99.90;;;;;;5060023;28;20543;-79
2023/10/04 00:20:16;;;;;;;3.97;2.30;;;13.70;99.90;;;;;;5059361;28;20477;-78
2023/10/04 00:22:46;;;;;;;3.40;2.20;;;13.70;99.90;;;;;;5059420;28;20497;-78
2023/10/04 00:25:16;;;;;;;7.20;2.43;;;13.60;99.90;;;;;;5059040;28;20538;-78
2023/10/04 00:27:45;;;;;;;4.00;1.90;;;13.70;99.90;;;;;;5058834;28;20458;-78
2023/10/04 00:30:14;;;;;;;5.60;3.23;;;13.60;99.90;;;;;;5059110;28;20536;-78
2023/10/04 00:32:41;;;;;;;8.20;2.40;;;13.60;99.90;;;;;;5060759;28;20460;-79
2023/10/04 00:35:11;;;;;;;5.67;2.23;;;13.70;99.90;;;;;;5059834;28;20558;-79
2023/10/04 00:37:38;;;;;;;5.57;2.27;;;13.70;99.90;;;;;;5057741;28;20510;-78
2023/10/04 00:40:14;;;;;;;5.90;2.13;;;13.70;99.90;;;;;;5057852;28;20558;-79
2023/10/04 00:42:41;;;;;;;3.63;1.93;;;13.70;99.90;;;;;;5058560;28;20487;-79
2023/10/04 00:45:13;;;;;;;6.70;2.50;;;13.60;99.90;;;;;;5058477;28;20517;-78
2023/10/04 00:47:42;;;;;;;5.10;2.30;;;13.70;99.90;;;;;;5058300;28;20464;-79
2023/10/04 00:50:15;;;;;;;6.80;2.40;;;13.60;99.90;;;;;;5058212;28;20466;-78
2023/10/04 00:52:49;;;;;;;5.97;2.80;;;13.70;99.90;;;;;;5062807;28;20892;-79
2023/10/04 00:55:18;;;;;;;10.17;2.63;;;13.60;99.90;;;;;;5063346;28;20592;-78
2023/10/04 00:57:45;;;;;;;8.33;2.60;;;13.70;99.90;;;;;;5062362;28;20455;-77
2023/10/04 01:00:14;;;;;;;5.30;2.30;;;13.70;99.90;;;;;;5057015;28;20482;-78
2023/10/04 01:02:42;;;;;;;5.60;2.13;;;13.70;99.90;;;;;;5063982;28;20849;-77
2023/10/04 01:05:11;;;;;;;6.33;2.60;;;13.60;99.90;;;;;;5064019;28;20448;-79
2023/10/04 01:07:39;;;;;;;9.00;3.30;;;13.70;99.90;;;;;;5063540;28;21134;-78
2023/10/04 01:10:14;;;;;;;8.13;2.63;;;13.60;99.90;;;;;;5063372;28;20574;-79
2023/10/04 01:12:41;;;;;;;5.30;2.50;;;13.60;99.90;;;;;;5063764;28;20463;-79
2023/10/04 01:15:25;;;;;;;6.20;1.90;;;13.50;99.90;;;;;;5055402;28;20870;-79
2023/10/04 01:17:54;;;;;;;6.03;2.50;;;13.60;99.90;;;;;;5060303;28;21026;-79
2023/10/04 01:20:27;;;;;;;5.80;2.40;;;13.60;99.90;;;;;;5063701;28;20535;-80
2023/10/04 01:23:00;;;;;;;6.50;3.00;;;13.50;99.90;;;;;;5064361;28;20928;-79
2023/10/04 01:25:31;;;;;;;10.07;2.50;;;13.60;99.90;;;;;;5064247;28;20480;-78
2023/10/04 01:27:58;;;;;;;5.00;2.40;;;13.50;99.90;;;;;;5063969;28;20483;-79
2023/10/04 01:30:25;;;;;;;6.97;2.50;;;13.60;99.90;;;;;;5063717;28;20568;-79
2023/10/04 01:32:52;;;;;;;5.97;2.60;;;13.50;99.90;;;;;;5063890;28;20514;-79
2023/10/04 01:35:23;;;;;;;6.50;2.00;;;13.50;99.90;;;;;;5064445;28;20524;-79
2023/10/04 01:37:51;;;;;;;6.10;2.43;;;13.60;99.90;;;;;;5063139;28;20459;-79
2023/10/04 01:40:22;;;;;;;5.20;2.07;;;13.60;99.90;;;;;;5063598;28;20515;-78
2023/10/04 01:42:49;;;;;;;7.10;2.53;;;13.50;99.90;;;;;;5065187;28;20450;-79
2023/10/04 01:45:18;;;;;;;5.17;2.50;;;13.50;99.90;;;;;;5062427;28;20467;-79
2023/10/04 01:47:45;;;;;;;3.40;2.10;;;13.60;99.90;;;;;;5062162;28;20465;-79
2023/10/04 01:50:12;;;;;;;7.03;2.27;;;13.60;99.90;;;;;;5063011;28;20542;-79
2023/10/04 01:52:40;;;;;;;6.20;2.37;;;13.60;99.90;;;;;;5064141;28;20463;-80
2023/10/04 01:55:10;;;;;;;5.70;2.00;;;13.60;99.90;;;;;;5064988;28;20562;-79
2023/10/04 01:57:41;;;;;;;4.93;1.93;;;13.60;99.90;;;;;;5072255;28;20480;-79
2023/10/04 02:00:10;;;;;;;3.77;1.90;;;13.60;99.90;;;;;;5063456;28;20464;-79
2023/10/04 02:02:37;;;;;;;7.57;2.33;;;13.70;99.90;;;;;;5069164;28;20459;-79
2023/10/04 02:05:05;;;;;;;6.80;2.40;;;13.70;99.90;;;;;;5072519;28;20450;-79
2023/10/04 02:07:32;;;;;;;8.93;2.90;;;13.70;99.90;;;;;;5073018;28;21191;-79
2023/10/04 02:09:59;;;;;;;6.93;2.13;;;13.60;99.90;;;;;;5072907;28;20563;-78
2023/10/04 02:12:26;;;;;;;7.07;2.90;;;13.60;99.90;;;;;;5069358;28;20455;-78
2023/10/04 02:14:54;;;;;;;5.17;2.77;;;13.60;99.90;;;;;;5061187;28;20491;-78
2023/10/04 02:17:22;;;;;;;7.40;2.40;;;13.70;99.90;;;;;;5060566;28;20901;-78
2023/10/04 02:19:49;;;;;;;6.67;2.00;;;13.80;99.90;;;;;;5060854;28;20461;-78
2023/10/04 02:22:18;;;;;;;7.27;2.67;;;13.80;99.90;;;;;;5061320;28;20524;-78
2023/10/04 02:24:45;;;;;;;7.53;2.10;;;13.80;99.90;;;;;;5060956;28;20455;-78
2023/10/04 02:27:12;;;;;;;4.77;2.10;;;13.80;99.90;;;;;;5060555;28;20463;-79
2023/10/04 02:29:38;;;;;;;5.80;2.30;;;13.80;99.90;;;;;;5059278;28;20557;-79
2023/10/04 02:32:09;;;;;;;9.53;2.60;;;13.80;99.90;;;;;;5057257;28;20460;-78
2023/10/04 02:34:36;;;;;;;7.30;2.70;;;13.80;99.90;;;;;;5058910;28;20519;-78
2023/10/04 02:37:06;;;;;;;8.57;2.43;;;13.80;99.90;;;;;;5059046;28;20451;-79
2023/10/04 02:39:36;;;;;;;10.30;2.40;;;13.80;99.90;;;;;;5057596;28;20465;-78
2023/10/04 02:42:09;;;;;;;6.23;2.27;;;13.80;99.90;;;;;;5059745;28;20470;-78
2023/10/04 02:44:36;;;;;;;3.77;2.40;;;13.70;99.90;;;;;;5058460;28;20452;-79
2023/10/04 02:47:06;;;;;;;10.13;2.73;;;13.70;99.90;;;;;;5057717;28;20947;-79
2023/10/04 02:49:37;;;;;;;6.27;3.37;;;13.80;99.90;;;;;;5059286;28;20553;-79
2023/10/04 02:52:05;;;;;;;11.27;3.00;;;13.80;99.90;;;;;;5059529;28;21128;-79
2023/10/04 02:54:32;;;;;;;5.40;2.60;;;13.80;99.90;;;;;;5059184;28;21012;-78
2023/10/04 02:57:00;;;;;;;6.60;2.60;;;13.80;99.90;;;;;;5059195;28;20529;-79
2023/10/04 02:59:27;;;;;;;6.47;2.60;;;13.70;99.90;;;;;;5058722;28;21327;-79
2023/10/04 03:01:54;;;;;;;7.80;2.73;;;13.80;99.90;;;;;;5058255;28;20556;-78
2023/10/04 03:04:21;;;;;;;10.53;2.93;;;13.80;99.90;;;;;;5057716;28;20450;-77
2023/10/04 03:06:51;;;;;;;5.20;2.40;;;13.70;99.90;;;;;;5059019;28;20455;-78
2023/10/04 03:09:18;;;;;;;7.83;2.87;;;13.80;99.90;;;;;;5056857;28;20457;-78
2023/10/04 03:11:45;;;;;;;4.17;2.03;;;13.80;99.90;;;;;;5055571;28;20561;-77
2023/10/04 03:14:12;;;;;;;5.27;2.20;;;13.80;99.90;;;;;;5055054;28;20548;-78
2023/10/04 03:16:41;;;;;;;7.53;2.80;;;13.90;99.90;;;;;;5057012;28;20879;-81
2023/10/04 03:19:10;;;;;;;10.03;2.53;;;13.90;99.90;;;;;;5054938;28;20461;-78
2023/10/04 03:21:44;;;;;;;7.20;2.77;;;13.80;99.90;;;;;;5056823;28;20852;-79
2023/10/04 03:24:12;;;;;;;7.20;2.50;;;13.90;99.90;;;;;;5059652;28;20456;-79
2023/10/04 03:26:39;;;;;;;5.00;2.10;;;13.90;99.90;;;;;;5058763;28;20458;-79
2023/10/04 03:29:06;;;;;;;6.07;2.60;;;13.90;99.90;;;;;;5056929;28;20451;-79
2023/10/04 03:31:35;;;;;;;7.30;2.60;;;13.90;99.90;;;;;;5057678;28;20479;-79
2023/10/04 03:34:03;;;;;;;9.73;2.70;;;13.90;99.90;;;;;;5058015;28;20491;-79
2023/10/04 03:36:34;;;;;;;4.17;2.37;;;14.00;99.90;;;;;;5058641;28;20470;-79
2023/10/04 03:39:01;;;;;;;4.80;2.63;;;14.00;99.90;;;;;;5057946;28;20457;-79
2023/10/04 03:41:29;;;;;;;7.67;2.43;;;14.00;99.90;;;;;;5058497;28;20485;-78
2023/10/04 03:43:56;;;;;;;6.60;2.60;;;13.90;99.90;;;;;;5057679;28;20455;-78
2023/10/04 03:46:22;;;;;;;6.70;2.00;;;14.00;99.90;;;;;;5057207;28;20465;-78
2023/10/04 03:48:51;;;;;;;7.83;2.53;;;14.00;99.90;;;;;;5057401;28;20454;-79
2023/10/04 03:51:21;;;;;;;6.50;2.53;;;14.10;99.90;;;;;;5057361;28;21045;-79
2023/10/04 03:53:49;;;;;;;6.17;3.30;;;14.10;99.90;;;;;;5057348;28;20463;-79
2023/10/04 03:56:17;;;;;;;4.47;1.90;;;14.00;99.90;;;;;;5057070;28;20487;-79
2023/10/04 03:58:45;;;;;;;6.20;2.30;;;14.00;99.90;;;;;;5058169;28;20951;-79
2023/10/04 04:01:14;;;;;;;5.83;2.33;;;14.00;99.90;;;;;;5057794;28;21016;-79
2023/10/04 04:03:41;;;;;;;6.73;2.27;;;14.00;99.90;;;;;;5059239;28;20456;-79
2023/10/04 04:06:08;;;;;;;5.80;2.83;;;13.90;99.90;;;;;;5056930;28;20442;-78
2023/10/04 04:08:37;;;;;;;7.10;2.20;;;13.80;99.90;;;;;;5056785;28;20459;-79
2023/10/04 04:11:06;;;;;;;6.77;2.00;;;13.80;99.90;;;;;;5058962;28;20472;-78
2023/10/04 04:13:36;;;;;;;9.37;2.97;;;13.90;99.90;;;;;;5058238;28;20459;-79
2023/10/04 04:16:09;;;;;;;7.70;2.67;;;13.80;99.90;;;;;;5057685;28;20533;-79
2023/10/04 04:18:37;;;;;;;6.83;2.53;;;13.80;99.90;;;;;;5057485;28;20462;-79
2023/10/04 04:21:05;;;;;;;8.23;3.33;;;13.90;99.90;;;;;;5057562;28;21047;-81
2023/10/04 04:23:32;;;;;;;11.77;3.67;;;13.90;99.90;;;;;;5056624;28;20451;-79
2023/10/04 04:26:01;;;;;;;6.93;2.67;;;13.80;99.90;;;;;;5059391;28;20495;-79
2023/10/04 04:28:29;;;;;;;8.73;2.67;;;13.70;99.90;;;;;;5060993;28;20910;-79
2023/10/04 04:30:58;;;;;;;8.80;2.37;;;13.70;99.90;;;;;;5060507;28;20476;-79
2023/10/04 04:33:28;;;;;;;6.07;2.60;;;13.70;99.90;;;;;;5061464;28;20488;-78
2023/10/04 04:36:01;;;;;;;8.33;2.67;;;13.70;99.90;;;;;;5062446;28;21006;-80
2023/10/04 04:38:28;;;;;;;7.37;3.00;;;13.80;99.90;;;;;;5061705;28;20584;-78
2023/10/04 04:40:56;;;;;;;11.60;2.60;;;13.70;99.90;;;;;;5061018;28;20534;-79
2023/10/04 04:43:35;;;;;;;10.80;3.10;;;13.70;99.90;;;;;;5061194;28;20536;-79
2023/10/04 04:46:06;;;;;;;7.00;2.40;;;13.70;99.90;;;;;;5061179;28;20452;-78
2023/10/04 04:48:36;;;;;;;7.93;2.93;;;13.70;99.90;;;;;;5059921;28;20458;-78
2023/10/04 04:51:08;;;;;;;7.50;2.10;;;13.60;99.90;;;;;;5059990;28;20480;-79
2023/10/04 04:53:35;;;;;;;9.23;2.47;;;13.70;99.90;;;;;;5059278;28;20463;-79
2023/10/04 04:56:02;;;;;;;4.93;2.40;;;13.70;99.90;;;;;;5058378;28;20488;-79
2023/10/04 04:58:30;;;;;;;6.63;2.63;;;13.80;99.90;;;;;;5059136;28;20456;-78
2023/10/04 05:01:00;;;;;;;4.53;2.23;;;13.70;99.90;;;;;;5058626;28;20873;-78
2023/10/04 05:03:28;;;;;;;5.90;2.13;;;13.60;99.90;;;;;;5060207;28;20463;-79
2023/10/04 05:05:56;;;;;;;6.40;2.63;;;13.60;99.90;;;;;;5060076;28;20531;-78
2023/10/04 05:08:25;;;;;;;8.83;2.60;;;13.60;99.90;;;;;;5059612;28;20463;-79
2023/10/04 05:10:54;;;;;;;5.60;2.37;;;13.60;99.90;;;;;;5060998;28;20483;-77
2023/10/04 05:13:21;;;;;;;7.07;2.23;;;13.50;99.90;;;;;;5061705;28;20908;-77
2023/10/04 05:15:49;;;;;;;6.43;2.43;;;13.50;99.90;;;;;;5060941;28;20493;-78
2023/10/04 05:18:17;;;;;;;10.53;2.80;;;13.60;99.90;;;;;;5060274;28;20489;-78
2023/10/04 05:20:45;;;;;;;14.83;2.33;;;13.50;99.90;;;;;;5059980;28;20520;-79
2023/10/04 05:23:14;;;;;;;8.03;2.33;;;13.50;99.90;;;;;;5059673;28;20449;-79
2023/10/04 05:25:41;;;;;;;7.47;2.57;;;13.40;99.90;;;;;;5059309;28;20533;-79
2023/10/04 05:28:11;;;;;;;10.77;4.40;;;13.40;99.90;;;;;;5057905;28;20508;-79
2023/10/04 05:30:39;;;;;;;6.80;2.80;;;13.40;99.90;;;;;;5058861;28;21040;-79
2023/10/04 05:33:07;;;;;;;8.50;2.00;;;13.40;99.90;;;;;;5058675;28;20463;-80
2023/10/04 05:35:35;;;;;;;4.80;2.43;;;13.40;99.90;;;;;;5057896;28;20490;-79
2023/10/04 05:38:03;;;;;;;6.77;2.63;;;13.40;99.90;;;;;;5058698;28;20511;-79
2023/10/04 05:40:32;;;;;;;5.63;2.33;;;13.20;99.90;;;;;;5059407;28;20489;-80
2023/10/04 05:42:59;;;;;;;7.50;2.30;;;13.30;99.90;;;;;;5059976;28;20526;-79
2023/10/04 05:45:26;;;;;;;5.13;2.10;;;13.30;99.90;;;;;;5059956;28;20453;-79
2023/10/04 05:47:53;;;;;;;10.20;2.73;;;13.40;99.90;;;;;;5059422;28;20542;-79
2023/10/04 05:50:22;;;;;;;7.20;3.03;;;13.40;99.90;;;;;;5059984;28;20467;-79
2023/10/04 05:52:49;;;;;;;15.13;3.70;;;13.40;99.90;;;;;;5060085;28;20464;-80
2023/10/04 05:55:17;;;;;;;6.50;2.50;;;13.20;99.90;;;;;;5060330;28;20496;-80
2023/10/04 05:57:46;;;;;;;16.73;3.00;;;13.30;99.90;;;;;;5059653;28;20451;-79
2023/10/04 06:00:24;;;;;;;4.53;2.47;;;13.20;99.90;;;;;;5059543;28;20485;-79
2023/10/04 06:02:53;;;;;;;8.97;2.30;;;13.20;99.90;;;;;;5059980;28;20566;-81
2023/10/04 06:05:22;;;;;;;9.93;3.07;;;13.20;99.90;;;;;;5060175;28;20470;-80
2023/10/04 06:07:49;;;;;;;11.87;3.40;;;13.20;99.90;;;;;;5058406;28;21031;-80
2023/10/04 06:10:18;;;;;;;5.70;2.33;;;13.20;99.90;;;;;;5057587;28;20870;-79
2023/10/04 06:12:46;;;;;;;7.10;2.23;;;13.30;99.90;;;;;;5058653;28;20887;-79
2023/10/04 06:15:16;;;;;;;9.23;3.00;;;13.30;99.90;;;;;;5057986;28;20499;-79
2023/10/04 06:17:43;;;;;;;9.20;3.07;;;13.30;99.90;;;;;;5059283;28;20468;-79
2023/10/04 06:20:24;;;;;;;7.77;2.90;;;13.30;99.90;;;;;;5063708;28;20917;-78
2023/10/04 06:22:52;;;;;;;7.00;2.80;;;13.30;99.90;;;;;;5058634;28;20455;-79
2023/10/04 06:25:22;;;;;;;6.07;2.50;;;13.40;99.90;;;;;;5057373;28;20496;-78
2023/10/04 06:27:51;;;;;;;13.50;3.10;;;13.40;99.90;;;;;;5057044;28;20467;-79
2023/10/04 06:30:21;;;;;;;9.47;2.80;;;13.40;99.90;;;;;;5059537;28;20501;-79
2023/10/04 06:32:49;;;;;;;6.60;3.00;;;13.40;99.90;;;;;;5059858;28;20491;-78
2023/10/04 06:35:17;;;;;;;8.17;2.70;;;13.40;99.90;;;;;;5057431;28;20487;-80
2023/10/04 06:37:44;;;;;;;9.50;3.30;;;13.40;99.90;;;;;;5058349;28;20541;-78
2023/10/04 06:40:15;;;;;;;7.40;3.73;;;13.50;99.90;;;;;;5057930;28;20555;-79
2023/10/04 06:42:44;;;;;;;14.07;3.43;;;13.50;99.90;;;;;;5058676;28;20834;-79
2023/10/04 06:45:13;;;;;;;12.10;2.47;;;13.50;99.90;;;;;;5058654;28;20446;-78
2023/10/04 06:47:43;;;;;;;6.80;2.70;;;13.60;99.90;;;;;;5057334;28;20453;-80
2023/10/04 06:50:13;;;;;;;11.93;3.30;;;13.60;99.90;;;;;;5054912;28;20484;-79
2023/10/04 06:52:41;;;;;;;10.20;3.23;;;13.60;99.90;;;;;;5057357;28;20460;-79
2023/10/04 06:55:08;;;;;;;6.90;2.60;;;13.60;99.90;;;;;;5056959;28;20466;-79
2023/10/04 06:57:35;;;;;;;6.70;3.27;;;13.70;99.90;;;;;;5057754;28;20540;-80
2023/10/04 07:00:10;;;;;;;8.17;2.40;;;13.70;99.90;;;;;;5057606;28;20474;-78
2023/10/04 07:02:41;;;;;;;8.60;3.20;;;13.80;99.90;;;;;;5058242;28;20520;-79
2023/10/04 07:05:08;;;;;;;12.53;3.70;;;13.70;99.90;;;;;;5056778;28;20460;-79
2023/10/04 07:07:36;;;;;;;14.43;3.50;;;13.70;99.90;;;;;;5057320;28;20441;-79
2023/10/04 07:10:03;;;;;;;7.37;3.10;;;13.80;99.90;;;;;;5055727;28;20524;-79
2023/10/04 07:12:31;;;;;;;6.83;3.10;;;13.80;99.90;;;;;;5055974;28;20825;-79
2023/10/04 07:14:58;;;;;;;15.20;3.77;;;13.90;99.90;;;;;;5053740;28;20459;-77
2023/10/04 07:17:25;;;;;;;10.33;4.73;;;13.90;99.90;;;;;;5054904;28;20502;-78
2023/10/04 07:19:53;;;;;;;6.53;3.30;;;14.00;99.90;;;;;;5055446;28;21005;-78
2023/10/04 07:22:21;;;;;;;11.63;3.63;;;13.90;99.90;;;;;;5056368;28;20451;-79
2023/10/04 07:24:48;;;;;;;8.57;3.47;;;13.90;99.90;;;;;;5055539;28;20453;-78
2023/10/04 07:27:17;;;;;;;13.90;3.67;;;13.90;99.90;;;;;;5054945;28;20445;-78
2023/10/04 07:29:45;;;;;;;9.00;3.83;;;14.00;99.90;;;;;;5057532;28;20453;-79
2023/10/04 07:32:12;;;;;;;7.30;3.50;;;14.00;99.90;;;;;;5056674;28;20460;-80
2023/10/04 07:34:39;;;;;;;8.83;3.60;;;14.00;99.90;;;;;;5058804;28;20455;-79
2023/10/04 07:37:08;;;;;;;9.90;4.50;;;14.00;99.90;;;;;;5060956;28;20487;-80
2023/10/04 07:39:35;;;;;;;13.70;4.20;;;14.10;99.90;;;;;;5060223;28;20959;-79
2023/10/04 07:42:02;;;;;;;15.97;3.90;;;14.10;99.90;;;;;;5061996;28;21120;-80
2023/10/04 07:44:30;;;;;;;12.43;4.07;;;14.00;99.90;;;;;;5057458;28;20682;-79
2023/10/04 07:46:59;;;;;;;9.40;4.00;;;14.00;99.90;;;;;;5057841;28;21177;-79
2023/10/04 07:49:26;;;;;;;8.17;3.77;;;14.20;99.90;;;;;;5058401;28;20459;-79
2023/10/04 07:51:53;;;;;;;13.10;4.30;;;14.20;99.90;;;;;;5059730;28;20841;-80
2023/10/04 07:54:22;;;;;;;10.17;4.90;;;14.20;99.90;;;;;;5060156;28;21156;-79
2023/10/04 07:56:49;;;;;;;14.20;3.97;;;14.20;99.90;;;;;;5057052;28;21058;-80
2023/10/04 07:59:18;;;;;;;10.43;3.93;;;14.20;99.90;;;;;;5053131;28;20459;-79
2023/10/04 08:01:45;;;;;;;13.40;5.50;;;14.10;99.90;;;;;;5054915;28;20565;-80
2023/10/04 08:04:12;;;;;;;13.20;4.57;;;14.20;99.90;;;;;;5054895;28;20542;-80
2023/10/04 08:06:40;;;;;;;10.77;4.00;;;14.30;99.90;;;;;;5054388;28;20447;-79
2023/10/04 08:09:07;;;;;;;10.23;3.90;;;14.40;99.90;;;;;;5047366;28;20511;-80
2023/10/04 08:11:37;;;;;;;15.03;4.70;;;14.50;99.90;;;;;;5054436;28;20469;-80
2023/10/04 08:14:07;;;;;;;9.70;3.90;;;14.50;99.90;;;;;;5057691;28;20451;-79
2023/10/04 08:16:34;;;;;;;6.70;4.23;;;14.60;99.90;;;;;;5055819;28;20522;-79
2023/10/04 08:19:01;;;;;;;11.90;4.40;;;14.60;99.90;;;;;;5054892;28;20460;-79
2023/10/04 08:21:28;;;;;;;11.90;4.03;;;14.60;99.90;;;;;;5055068;28;20478;-79
2023/10/04 08:23:55;;;;;;;8.07;3.73;;;14.70;99.90;;;;;;5056480;28;20463;-80
2023/10/04 08:26:22;;;;;;;9.93;3.93;;;14.70;99.90;;;;;;5053757;28;20452;-80
2023/10/04 08:28:51;;;;;;;9.20;3.80;;;14.80;99.90;;;;;;5053627;28;20951;-80
2023/10/04 08:31:18;;;;;;;10.90;3.37;;;14.80;99.90;;;;;;5053839;28;20546;-79
2023/10/04 08:33:45;;;;;;;8.17;3.23;;;14.90;99.90;;;;;;5053268;28;20497;-80
2023/10/04 08:36:15;;;;;;;10.00;3.63;;;15.00;99.90;;;;;;5053350;28;20867;-80
2023/10/04 08:38:42;;;;;;;8.27;4.00;;;15.10;99.90;;;;;;5052096;28;20466;-79
2023/10/04 08:41:09;;;;;;;11.00;4.03;;;15.30;99.90;;;;;;5051968;28;21081;-80
2023/10/04 08:43:37;;;;;;;8.87;3.87;;;15.30;99.90;;;;;;5053589;28;20542;-79
2023/10/04 08:46:07;;;;;;;10.13;3.70;;;15.40;99.90;;;;;;5052423;28;20453;-80
2023/10/04 08:48:34;;;;;;;13.07;3.87;;;15.40;99.90;;;;;;5053344;28;20455;-80
2023/10/04 08:51:13;;;;;;;5.40;3.20;;;15.50;99.90;;;;;;5052592;28;20475;-80
2023/10/04 08:53:48;;;;;;;8.63;3.70;;;15.50;99.90;;;;;;5053229;28;20545;-80
2023/10/04 08:56:17;;;;;;;7.80;3.50;;;15.50;99.90;;;;;;5056599;28;20478;-77
2023/10/04 08:58:44;;;;;;;5.20;3.00;;;15.70;99.90;;;;;;5051870;28;20999;-80
2023/10/04 09:01:15;;;;;;;5.60;3.00;;;15.80;99.90;;;;;;5056981;28;20471;-78
2023/10/04 09:03:43;;;;;;;11.00;4.43;;;15.80;99.90;;;;;;5068057;28;20444;-80
2023/10/04 09:06:11;;;;;;;9.23;3.33;;;15.80;99.90;;;;;;5054600;28;20963;-78
2023/10/04 09:08:40;;;;;;;8.40;3.37;;;15.80;99.90;;;;;;5054876;28;20459;-79
2023/10/04 09:11:10;;;;;;;12.47;4.63;;;15.90;99.90;;;;;;5052627;28;20508;-78
2023/10/04 09:13:44;;;;;;;5.80;3.70;;;16.00;99.90;;;;;;5057220;28;20464;-78
2023/10/04 09:16:20;;;;;;;10.07;3.40;;;16.10;99.90;;;;;;5057624;28;20905;-78
2023/10/04 09:18:46;;;;;;;7.33;3.37;;;16.20;99.90;;;;;;5056810;28;20456;-78
2023/10/04 09:21:16;;;;;;;10.20;4.03;;;16.20;99.90;;;;;;5056582;28;20483;-78
2023/10/04 09:23:45;;;;;;;9.40;3.67;;;16.30;99.90;;;;;;5056910;28;20910;-77
2023/10/04 09:26:16;;;;;;;11.93;3.60;;;16.40;99.90;;;;;;5056471;28;20885;-78
2023/10/04 09:28:43;;;;;;;9.83;3.80;;;16.40;99.90;;;;;;5056379;28;20455;-78
2023/10/04 09:31:11;;;;;;;10.37;3.80;;;16.60;99.90;;;;;;5056213;28;20482;-77
2023/10/04 09:33:39;;;;;;;10.33;4.27;;;16.70;99.90;;;;;;5056177;28;20483;-80
2023/10/04 09:36:06;;;;;;;12.43;4.50;;;16.80;99.90;;;;;;5052938;28;20575;-80
2023/10/04 09:38:35;;;;;;;11.57;4.10;;;16.90;99.90;;;;;;5052595;28;20475;-79
2023/10/04 09:41:02;;;;;;;9.23;3.87;;;17.10;99.90;;;;;;5049289;28;20481;-79
2023/10/04 09:43:36;;;;;;;12.20;4.70;;;17.30;99.90;;;;;;5055674;28;20657;-81
2023/10/04 09:46:04;;;;;;;7.40;3.70;;;17.30;99.90;;;;;;5050626;28;20475;-81
2023/10/04 09:48:33;;;;;;;10.70;4.77;;;17.30;99.90;;;;;;5044859;28;20460;-79
2023/10/04 09:51:05;;;;;;;11.57;4.10;;;17.10;99.90;;;;;;5050845;28;20481;-79
2023/10/04 09:53:31;;;;;;;11.90;4.30;;;17.20;99.90;;;;;;5055017;28;20992;-80
2023/10/04 09:56:01;;;;;;;8.63;4.20;;;17.20;99.90;;;;;;5048573;28;20479;-79
2023/10/04 09:58:31;;;;;;;7.10;4.27;;;17.20;99.90;;;;;;5046156;28;20458;-79
2023/10/04 10:01:04;;;;;;;7.53;3.60;;;17.20;99.90;;;;;;5052092;28;20467;-79
2023/10/04 10:03:36;;;;;;;10.30;3.70;;;17.20;99.90;;;;;;5049895;28;20460;-80
2023/10/04 10:06:07;;;;;;;9.10;3.73;;;17.20;99.90;;;;;;5055683;28;20537;-80
2023/10/04 10:08:36;;;;;;;8.33;3.63;;;17.40;99.90;;;;;;5055541;28;20462;-80
2023/10/04 10:11:05;;;;;;;13.53;4.23;;;17.60;99.90;;;;;;5055993;28;20493;-80
2023/10/04 10:13:32;;;;;;;8.30;4.13;;;17.80;99.90;;;;;;5056340;28;20451;-79
2023/10/04 10:16:00;;;;;;;8.37;3.30;;;18.00;99.90;;;;;;5051433;28;20469;-80
2023/10/04 10:18:27;;;;;;;12.73;4.20;;;18.10;99.90;;;;;;5047230;28;20449;-79
2023/10/04 10:20:55;;;;;;;13.70;3.43;;;18.30;99.90;;;;;;5048540;28;20898;-79
2023/10/04 10:23:24;;;;;;;6.03;2.77;;;18.40;99.90;;;;;;5055322;28;20463;-80
2023/10/04 10:26:17;;;;;;;7.50;3.23;;;18.40;99.90;;;;;;5055314;28;20454;-80
2023/10/04 10:28:47;;;;;;;9.20;3.90;;;18.20;99.90;;;;;;5054959;28;20484;-79
2023/10/04 10:31:20;;;;;;;11.27;3.93;;;18.20;99.90;;;;;;5053655;28;20475;-79
2023/10/04 10:33:47;;;;;;;9.50;3.40;;;18.20;99.90;;;;;;5054702;28;20450;-80
2023/10/04 10:36:20;;;;;;;7.33;2.43;;;18.20;99.90;;;;;;5049728;28;20469;-79
2023/10/04 10:38:48;;;;;;;12.23;4.63;;;18.30;99.90;;;;;;5056106;28;20450;-80
2023/10/04 10:41:55;;;;;;;6.77;3.37;;;18.50;99.90;;;;;;5054990;28;20483;-80
2023/10/04 10:44:23;;;;;;;8.13;3.03;;;18.60;99.90;;;;;;5038810;28;20469;-79
2023/10/04 10:46:54;;;;;;;9.50;3.30;;;18.80;99.90;;;;;;5055731;28;20501;-80
2023/10/04 10:49:44;;;;;;;8.33;4.00;;;18.60;99.90;;;;;;5056134;28;20456;-79
2023/10/04 10:52:16;;;;;;;12.30;3.33;;;18.80;99.90;;;;;;5054289;28;20456;-80
2023/10/04 10:54:45;;;;;;;12.40;3.33;;;18.80;99.90;;;;;;5055934;28;20832;-79
2023/10/04 10:57:13;;;;;;;8.13;3.80;;;18.80;99.90;;;;;;5056278;28;20790;-80
2023/10/04 10:59:40;;;;;;;8.80;2.80;;;18.90;99.90;;;;;;5055990;28;20456;-81
2023/10/04 11:02:07;;;;;;;9.27;3.20;;;19.10;99.90;;;;;;5056214;28;20475;-79
2023/10/04 11:04:34;;;;;;;8.80;2.93;;;19.10;99.90;;;;;;5056482;28;20466;-79
2023/10/04 11:07:01;;;;;;;8.23;3.30;;;19.10;99.90;;;;;;5055081;28;20953;-79
2023/10/04 11:09:30;;;;;;;9.50;3.40;;;19.20;99.90;;;;;;5049233;28;20993;-80
2023/10/04 11:11:58;;;;;;;9.83;2.90;;;19.30;99.90;;;;;;5055766;28;20564;-78
2023/10/04 11:14:25;;;;;;;11.70;3.03;;;19.40;99.90;;;;;;5055458;28;20478;-79
2023/10/04 11:16:52;;;;;;;8.40;3.23;;;19.50;99.90;;;;;;5057428;28;20574;-78
2023/10/04 11:19:19;;;;;;;9.17;3.03;;;19.50;99.90;;;;;;5055625;28;20484;-78
2023/10/04 11:21:46;;;;;;;6.97;3.10;;;19.50;99.90;;;;;;5055104;28;20490;-80
2023/10/04 11:24:15;;;;;;;8.73;3.23;;;19.40;99.90;;;;;;5054860;28;20970;-79
2023/10/04 11:26:43;;;;;;;7.57;3.00;;;19.70;99.90;;;;;;5055117;28;20883;-80
2023/10/04 11:29:12;;;;;;;9.07;2.50;;;19.80;99.90;;;;;;5055352;28;20948;-79
2023/10/04 11:31:39;;;;;;;9.27;3.13;;;19.80;99.90;;;;;;5055220;28;20889;-80
2023/10/04 11:34:06;;;;;;;7.73;3.37;;;19.80;99.90;;;;;;5054990;28;20451;-80
2023/10/04 11:36:36;;;;;;;11.47;3.40;;;19.90;99.90;;;;;;5054678;28;20447;-80
2023/10/04 11:39:09;;;;;;;10.87;3.00;;;20.00;99.90;;;;;;5055152;28;20460;-80
2023/10/04 11:41:39;;;;;;;13.50;3.60;;;20.10;99.90;;;;;;5055889;28;20499;-81
2023/10/04 11:44:07;;;;;;;8.30;3.57;;;19.70;99.90;;;;;;5054607;28;20454;-80
2023/10/04 11:46:58;;;;;;;6.30;3.80;;;19.70;99.90;;;;;;5054127;28;20447;-80
2023/10/04 11:49:24;;;;;;;11.30;4.10;;;20.00;99.90;;;;;;5055166;28;20463;-80
2023/10/04 11:51:51;;;;;;;10.80;3.60;;;20.30;99.90;;;;;;5053924;28;20472;-80
2023/10/04 11:54:19;;;;;;;9.70;4.13;;;20.50;99.90;;;;;;5054553;28;20470;-80
2023/10/04 11:56:46;;;;;;;7.60;3.30;;;20.30;99.90;;;;;;5054736;28;20448;-80
2023/10/04 11:59:14;;;;;;;9.47;2.93;;;20.20;99.90;;;;;;5054852;28;20459;-80
2023/10/04 12:01:44;;;;;;;4.20;2.40;;;20.40;99.90;;;;;;5054957;28;20476;-80
2023/10/04 12:04:14;;;;;;;5.80;2.67;;;20.80;99.90;;;;;;5055289;28;20448;-80
2023/10/04 12:06:42;;;;;;;8.17;4.17;;;20.60;99.90;;;;;;5054980;28;20448;-80
2023/10/04 12:09:09;;;;;;;8.73;3.73;;;20.50;99.90;;;;;;5053908;28;20546;-79
2023/10/04 12:11:37;;;;;;;5.47;2.67;;;20.30;99.90;;;;;;5054404;28;20533;-81
2023/10/04 12:14:05;;;;;;;11.60;3.57;;;20.60;99.90;;;;;;5051185;28;20925;-81
2023/10/04 12:16:33;;;;;;;8.37;3.13;;;20.70;99.90;;;;;;5054157;28;20573;-81
2023/10/04 12:19:01;;;;;;;7.00;2.73;;;20.80;99.90;;;;;;5054547;28;20484;-81
2023/10/04 12:21:31;;;;;;;8.93;3.23;;;20.70;99.90;;;;;;5063443;28;20471;-80
2023/10/04 12:23:58;;;;;;;7.73;3.00;;;20.50;99.90;;;;;;5065488;28;20492;-79
2023/10/04 12:26:25;;;;;;;7.70;3.23;;;20.40;99.90;;;;;;5063593;28;20564;-80
2023/10/04 12:28:52;;;;;;;6.50;3.57;;;20.00;99.90;;;;;;5062271;28;20454;-80
2023/10/04 12:31:19;;;;;;;6.70;3.17;;;20.10;99.90;;;;;;5059260;28;20563;-80
2023/10/04 12:33:46;;;;;;;9.30;3.60;;;20.20;99.90;;;;;;5055425;28;20459;-80
2023/10/04 12:36:13;;;;;;;9.20;3.70;;;20.30;99.90;;;;;;5053406;28;20935;-79
2023/10/04 12:38:41;;;;;;;8.20;3.50;;;20.10;99.90;;;;;;5052292;28;21025;-80
2023/10/04 12:41:08;;;;;;;11.27;3.47;;;20.10;99.90;;;;;;5049294;28;20570;-80
2023/10/04 12:43:36;;;;;;;6.63;3.03;;;20.00;99.90;;;;;;5049609;28;21152;-80
2023/10/04 12:46:03;;;;;;;7.57;3.30;;;19.80;99.90;;;;;;5055266;28;21029;-80
2023/10/04 12:48:30;;;;;;;8.30;3.40;;;19.70;99.90;;;;;;5058004;28;20448;-79
2023/10/04 12:50:57;;;;;;;8.57;3.63;;;19.50;99.90;;;;;;5059035;28;20539;-78
2023/10/04 12:53:25;;;;;;;7.57;3.30;;;19.50;99.90;;;;;;5055359;28;20542;-79